createdAt,value
2022-10-23T00:00:18.665Z,5.90
2022-10-23T00:02:51.165Z,5.90
2022-10-23T00:05:17.817Z,5.00
2022-10-23T00:07:44.352Z,4.97
2022-10-23T00:10:10.937Z,4.75
2022-10-23T00:12:37.466Z,4.78
2022-10-23T00:15:06.274Z,4.50
2022-10-23T00:17:32.825Z,4.55
2022-10-23T00:19:59.349Z,4.13
2022-10-23T00:22:25.870Z,3.28
2022-10-23T00:24:52.498Z,3.72
2022-10-23T00:27:19.151Z,3.80
2022-10-23T00:29:45.685Z,3.47
2022-10-23T00:32:13.595Z,2.75
2022-10-23T00:34:40.228Z,2.67
2022-10-23T00:37:06.781Z,2.42
2022-10-23T00:39:33.370Z,2.25
2022-10-23T00:42:00.166Z,2.67
2022-10-23T00:45:04.129Z,2.80
2022-10-23T00:47:32.039Z,2.50
2022-10-23T00:49:58.593Z,2.50
2022-10-23T00:52:25.156Z,2.85
2022-10-23T00:54:51.784Z,2.60
2022-10-23T00:57:25.033Z,2.95
2022-10-23T00:59:51.657Z,3.00
2022-10-23T01:02:18.268Z,3.10
2022-10-23T01:04:46.346Z,2.60
2022-10-23T01:07:17.481Z,3.05
2022-10-23T01:09:51.210Z,2.35
2022-10-23T01:12:24.954Z,3.10
2022-10-23T01:15:00.973Z,2.60
2022-10-23T01:17:34.967Z,2.80
2022-10-23T01:20:19.721Z,4.63
2022-10-23T01:23:05.695Z,2.92
2022-10-23T01:25:50.404Z,2.70
2022-10-23T01:28:26.235Z,2.88
2022-10-23T01:30:54.363Z,3.40
2022-10-23T01:33:25.834Z,3.90
2022-10-23T01:35:56.326Z,3.17
2022-10-23T01:38:27.282Z,3.30
2022-10-23T01:40:58.712Z,3.13
2022-10-23T01:43:32.134Z,2.88
2022-10-23T01:46:02.169Z,2.45
2022-10-23T01:48:31.000Z,2.08
2022-10-23T01:51:01.499Z,2.00
2022-10-23T01:53:30.520Z,3.30
2022-10-23T01:58:56.818Z,2.55
2022-10-23T02:01:27.648Z,2.30
2022-10-23T02:03:55.799Z,2.50
2022-10-23T02:06:28.981Z,2.40
2022-10-23T02:08:56.372Z,2.38
2022-10-23T02:11:23.124Z,3.00
2022-10-23T02:13:56.665Z,3.67
2022-10-23T02:16:30.502Z,3.13
2022-10-23T02:19:10.942Z,3.63
2022-10-23T02:21:48.275Z,3.42
2022-10-23T02:24:19.236Z,3.05
2022-10-23T02:26:51.121Z,3.40
2022-10-23T02:29:24.497Z,3.75
2022-10-23T02:31:51.055Z,3.88
2022-10-23T02:34:18.235Z,3.55
2022-10-23T02:36:44.914Z,4.18
2022-10-23T02:39:11.485Z,4.00
2022-10-23T02:41:44.162Z,4.03
2022-10-23T02:44:35.327Z,3.75
2022-10-23T02:47:11.797Z,3.78
2022-10-23T02:49:44.458Z,3.70
2022-10-23T02:52:18.784Z,4.00
2022-10-23T02:54:55.639Z,3.90
2022-10-23T02:57:30.760Z,3.95
2022-10-23T03:00:04.794Z,3.80
2022-10-23T03:02:37.521Z,3.40
2022-10-23T03:05:07.486Z,4.10
2022-10-23T03:07:34.893Z,4.18
2022-10-23T03:10:01.502Z,4.22
2022-10-23T03:12:28.057Z,4.00
2022-10-23T03:14:54.549Z,4.07
2022-10-23T03:17:22.487Z,4.63
2022-10-23T03:19:48.979Z,4.47
2022-10-23T03:22:15.620Z,5.28
2022-10-23T03:24:42.259Z,4.68
2022-10-23T03:27:08.993Z,3.80
2022-10-23T03:29:35.509Z,4.07
2022-10-23T03:32:02.141Z,3.90
2022-10-23T03:34:30.028Z,4.20
2022-10-23T03:36:56.584Z,4.28
2022-10-23T03:39:23.289Z,4.25
2022-10-23T03:41:49.814Z,4.43
2022-10-23T03:44:16.721Z,4.63
2022-10-23T03:46:43.253Z,4.32
2022-10-23T03:49:09.781Z,4.43
2022-10-23T03:51:37.666Z,3.65
2022-10-23T03:54:04.234Z,3.47
2022-10-23T03:56:30.754Z,4.28
2022-10-23T03:58:57.292Z,4.13
2022-10-23T04:01:23.930Z,4.15
2022-10-23T04:03:50.575Z,3.83
2022-10-23T04:06:17.285Z,3.70
2022-10-23T04:08:45.801Z,4.20
2022-10-23T04:11:12.369Z,4.00
2022-10-23T04:13:38.933Z,3.40
2022-10-23T04:16:05.806Z,3.08
2022-10-23T04:18:32.324Z,4.03
2022-10-23T04:20:58.854Z,3.97
2022-10-23T04:23:25.393Z,3.60
2022-10-23T04:25:55.936Z,3.80
2022-10-23T04:28:22.481Z,3.72
2022-10-23T04:30:48.977Z,4.05
2022-10-23T04:33:15.593Z,3.40
2022-10-23T04:35:42.101Z,3.53
2022-10-23T04:38:08.622Z,3.58
2022-10-23T04:40:35.167Z,4.10
2022-10-23T04:43:03.146Z,4.70
2022-10-23T04:45:29.893Z,3.95
2022-10-23T04:47:56.442Z,3.50
2022-10-23T04:50:24.327Z,3.53
2022-10-23T04:52:54.435Z,3.70
2022-10-23T04:55:21.038Z,4.03
2022-10-23T04:57:47.578Z,3.42
2022-10-23T05:00:16.069Z,3.45
2022-10-23T05:02:42.825Z,3.42
2022-10-23T05:05:10.329Z,3.90
2022-10-23T05:07:38.962Z,3.58
2022-10-23T05:10:06.585Z,3.83
2022-10-23T05:12:33.278Z,3.53
2022-10-23T05:14:59.807Z,3.30
2022-10-23T05:17:32.033Z,3.55
2022-10-23T05:20:01.418Z,3.72
2022-10-23T05:22:32.769Z,4.03
2022-10-23T05:24:59.319Z,3.83
2022-10-23T05:27:25.922Z,4.20
2022-10-23T05:29:52.457Z,3.65
2022-10-23T05:34:54.983Z,3.30
2022-10-23T05:37:21.825Z,3.90
2022-10-23T05:39:48.408Z,3.92
2022-10-23T05:42:14.917Z,3.67
2022-10-23T05:44:41.466Z,4.47
2022-10-23T05:47:08.036Z,4.90
2022-10-23T05:49:34.874Z,4.53
2022-10-23T05:52:02.800Z,4.22
2022-10-23T05:54:29.325Z,4.65
2022-10-23T05:56:56.250Z,4.07
2022-10-23T05:59:23.430Z,4.00
2022-10-23T06:01:50.183Z,3.88
2022-10-23T06:04:16.909Z,3.80
2022-10-23T06:06:45.382Z,3.70
2022-10-23T06:09:14.062Z,3.92
2022-10-23T06:11:40.583Z,3.95
2022-10-23T06:14:07.173Z,3.80
2022-10-23T06:16:33.868Z,3.90
2022-10-23T06:19:00.384Z,3.90
2022-10-23T06:21:27.243Z,4.45
2022-10-23T06:23:54.881Z,3.45
2022-10-23T06:26:22.798Z,3.90
2022-10-23T06:28:49.314Z,3.90
2022-10-23T06:31:16.834Z,5.07
2022-10-23T06:33:43.376Z,3.95
2022-10-23T06:36:10.055Z,3.55
2022-10-23T06:38:36.918Z,3.50
2022-10-23T06:41:04.284Z,2.95
2022-10-23T06:43:32.180Z,3.63
2022-10-23T06:46:00.929Z,3.30
2022-10-23T06:48:27.547Z,3.08
2022-10-23T06:50:54.097Z,3.83
2022-10-23T06:53:20.659Z,3.78
2022-10-23T06:55:50.019Z,4.05
2022-10-23T06:58:19.494Z,4.03
2022-10-23T07:00:47.493Z,3.15
2022-10-23T07:03:14.140Z,3.60
2022-10-23T07:05:40.673Z,3.40
2022-10-23T07:08:07.388Z,3.40
2022-10-23T07:10:34.667Z,3.90
2022-10-23T07:13:01.412Z,3.60
2022-10-23T07:15:28.119Z,3.33
2022-10-23T07:17:56.188Z,3.83
2022-10-23T07:20:22.735Z,3.65
2022-10-23T07:22:51.655Z,3.80
2022-10-23T07:25:18.424Z,3.80
2022-10-23T07:27:45.265Z,3.97
2022-10-23T07:30:13.482Z,3.70
2022-10-23T07:32:40.185Z,3.65
2022-10-23T07:35:09.263Z,3.88
2022-10-23T07:37:35.878Z,3.33
2022-10-23T07:40:03.008Z,3.45
2022-10-23T07:42:29.563Z,3.10
2022-10-23T07:44:56.118Z,3.45
2022-10-23T07:47:22.698Z,3.60
2022-10-23T07:49:49.255Z,4.07
2022-10-23T07:52:17.620Z,4.15
2022-10-23T07:54:44.319Z,3.90
2022-10-23T07:57:11.284Z,3.65
2022-10-23T07:59:38.338Z,3.60
2022-10-23T08:02:05.016Z,3.97
2022-10-23T08:04:31.663Z,3.60
2022-10-23T08:06:58.948Z,3.90
2022-10-23T08:09:26.965Z,3.60
2022-10-23T08:11:53.598Z,3.42
2022-10-23T08:14:20.128Z,4.10
2022-10-23T08:16:46.692Z,3.40
2022-10-23T08:19:13.490Z,3.60
2022-10-23T08:21:40.157Z,3.80
2022-10-23T08:24:07.125Z,3.60
2022-10-23T08:26:34.975Z,3.65
2022-10-23T08:29:01.604Z,3.80
2022-10-23T08:31:28.228Z,4.30
2022-10-23T08:33:54.945Z,3.83
2022-10-23T08:36:23.175Z,3.70
2022-10-23T08:38:50.646Z,4.07
2022-10-23T08:41:24.617Z,4.03
2022-10-23T08:43:56.783Z,4.18
2022-10-23T08:46:28.541Z,3.80
2022-10-23T08:48:59.750Z,3.53
2022-10-23T08:51:33.188Z,3.57
2022-10-23T08:54:06.317Z,4.50
2022-10-23T08:56:35.525Z,4.07
2022-10-23T08:59:12.707Z,4.20
2022-10-23T09:01:42.903Z,4.00
2022-10-23T09:04:12.207Z,4.23
2022-10-23T09:06:43.911Z,4.07
2022-10-23T09:09:41.824Z,4.03
2022-10-23T09:12:12.639Z,3.90
2022-10-23T09:15:03.871Z,3.83
2022-10-23T09:17:33.008Z,3.83
2022-10-23T09:20:07.431Z,4.82
2022-10-23T09:22:34.081Z,3.80
2022-10-23T09:25:00.660Z,3.63
2022-10-23T09:27:27.325Z,3.67
2022-10-23T09:29:57.837Z,3.53
2022-10-23T09:32:35.735Z,3.30
2022-10-23T09:35:02.434Z,3.35
2022-10-23T09:37:31.573Z,3.00
2022-10-23T09:40:16.377Z,2.90
2022-10-23T09:42:54.956Z,3.00
2022-10-23T09:45:29.198Z,3.10
2022-10-23T09:48:18.090Z,2.38
2022-10-23T09:50:50.223Z,2.70
2022-10-23T09:53:22.823Z,2.53
2022-10-23T09:55:54.896Z,2.70
2022-10-23T09:58:29.354Z,2.90
2022-10-23T10:00:57.539Z,3.45
2022-10-23T10:03:24.990Z,3.70
2022-10-23T10:05:57.703Z,3.38
2022-10-23T10:08:32.309Z,3.10
2022-10-23T10:11:02.376Z,2.90
2022-10-23T10:13:47.345Z,2.70
2022-10-23T10:16:24.011Z,3.10
2022-10-23T10:18:56.875Z,2.72
2022-10-23T10:21:26.513Z,2.40
2022-10-23T10:23:59.381Z,2.50
2022-10-23T10:26:39.046Z,2.55
2022-10-23T10:29:15.756Z,2.47
2022-10-23T10:31:58.220Z,2.90
2022-10-23T10:34:29.830Z,2.80
2022-10-23T10:37:01.135Z,2.67
2022-10-23T10:39:41.131Z,2.47
2022-10-23T10:42:39.615Z,2.30
2022-10-23T10:45:20.560Z,2.35
2022-10-23T10:48:02.336Z,2.00
2022-10-23T10:50:36.301Z,2.20
2022-10-23T10:53:10.197Z,1.95
2022-10-23T10:55:39.307Z,1.90
2022-10-23T10:58:14.629Z,2.15
2022-10-23T11:00:42.803Z,2.10
2022-10-23T11:03:30.202Z,2.58
2022-10-23T11:08:44.537Z,2.22
2022-10-23T11:11:26.747Z,1.80
2022-10-23T11:13:53.476Z,1.87
2022-10-23T11:16:24.454Z,1.90
2022-10-23T11:19:01.948Z,1.80
2022-10-23T11:21:35.194Z,1.88
2022-10-23T11:24:38.701Z,1.98
2022-10-23T11:27:23.421Z,1.90
2022-10-23T11:30:11.616Z,2.40
2022-10-23T11:33:02.022Z,1.85
2022-10-23T11:35:44.167Z,2.47
2022-10-23T11:38:16.853Z,1.90
2022-10-23T11:40:46.038Z,2.07
2022-10-23T11:43:12.620Z,2.05
2022-10-23T11:45:40.823Z,1.90
2022-10-23T11:48:21.217Z,1.75
2022-10-23T11:50:54.048Z,1.80
2022-10-23T11:53:26.829Z,1.87
2022-10-23T11:56:02.940Z,1.80
2022-10-23T11:58:42.916Z,1.33
2022-10-23T12:01:25.907Z,1.25
2022-10-23T12:03:56.111Z,1.25
2022-10-23T12:06:27.527Z,1.40
2022-10-23T12:08:58.773Z,0.88
2022-10-23T12:11:27.937Z,1.02
2022-10-23T12:13:54.675Z,0.90
2022-10-23T12:16:21.324Z,1.10
2022-10-23T12:18:51.406Z,0.90
2022-10-23T12:21:21.327Z,1.10
2022-10-23T12:24:21.653Z,1.00
2022-10-23T12:26:59.395Z,1.15
2022-10-23T12:29:42.462Z,0.85
2022-10-23T12:32:25.958Z,1.10
2022-10-23T12:35:08.269Z,0.80
2022-10-23T12:37:55.430Z,0.98
2022-10-23T12:40:23.846Z,0.98
2022-10-23T12:42:53.893Z,0.95
2022-10-23T12:45:23.725Z,0.83
2022-10-23T12:47:51.625Z,1.00
2022-10-23T12:50:19.949Z,1.13
2022-10-23T12:52:54.501Z,1.10
2022-10-23T12:55:23.335Z,1.45
2022-10-23T12:57:50.721Z,0.87
2022-10-23T13:00:21.344Z,1.15
2022-10-23T13:02:57.933Z,1.00
2022-10-23T13:05:25.613Z,0.90
2022-10-23T13:07:52.382Z,0.77
2022-10-23T13:10:20.698Z,0.90
2022-10-23T13:12:53.675Z,1.30
2022-10-23T13:15:22.864Z,0.90
2022-10-23T13:18:01.529Z,1.45
2022-10-23T13:20:29.822Z,1.20
2022-10-23T13:23:00.842Z,1.10
2022-10-23T13:25:30.862Z,1.10
2022-10-23T13:28:13.121Z,1.20
2022-10-23T13:30:42.054Z,1.15
2022-10-23T13:33:16.050Z,1.10
2022-10-23T13:35:42.601Z,1.00
2022-10-23T13:38:09.561Z,1.08
2022-10-23T13:40:36.575Z,1.15
2022-10-23T13:43:08.939Z,0.90
2022-10-23T13:45:40.687Z,0.98
2022-10-23T13:48:13.560Z,2.30
2022-10-23T13:50:40.208Z,0.98
2022-10-23T13:53:09.377Z,1.10
2022-10-23T13:55:37.266Z,0.95
2022-10-23T13:58:03.918Z,0.90
2022-10-23T14:00:30.465Z,0.90
2022-10-23T14:02:58.369Z,1.13
2022-10-23T14:05:25.048Z,1.13
2022-10-23T14:07:51.659Z,1.40
2022-10-23T14:10:23.435Z,1.00
2022-10-23T14:12:51.190Z,1.40
2022-10-23T14:15:17.854Z,1.52
2022-10-23T14:17:44.488Z,0.90
2022-10-23T14:20:12.961Z,1.20
2022-10-23T14:22:39.594Z,1.30
2022-10-23T14:25:06.681Z,1.07
2022-10-23T14:27:33.596Z,1.17
2022-10-23T14:30:00.219Z,1.30
2022-10-23T14:32:26.822Z,1.45
2022-10-23T14:34:55.262Z,0.95
2022-10-23T14:37:23.217Z,1.00
2022-10-23T14:39:50.416Z,1.30
2022-10-23T14:42:20.189Z,1.00
2022-10-23T14:44:46.729Z,0.93
2022-10-23T14:47:13.284Z,1.20
2022-10-23T14:49:39.890Z,1.13
2022-10-23T14:52:06.593Z,1.40
2022-10-23T14:54:35.091Z,1.50
2022-10-23T14:57:01.849Z,1.23
2022-10-23T14:59:28.704Z,1.00
2022-10-23T15:01:55.312Z,1.20
2022-10-23T15:04:22.216Z,1.50
2022-10-23T15:06:48.780Z,1.60
2022-10-23T15:09:15.675Z,1.23
2022-10-23T15:11:43.620Z,1.30
2022-10-23T15:14:10.425Z,1.00
2022-10-23T15:16:37.017Z,1.50
2022-10-23T15:19:03.581Z,1.75
2022-10-23T15:21:30.148Z,1.38
2022-10-23T15:23:56.677Z,1.50
2022-10-23T15:26:23.269Z,1.60
2022-10-23T15:28:54.887Z,1.42
2022-10-23T15:31:46.067Z,1.65
2022-10-23T15:34:14.926Z,1.70
2022-10-23T15:36:41.576Z,1.70
2022-10-23T15:39:09.525Z,1.57
2022-10-23T15:41:38.042Z,1.73
2022-10-23T15:44:08.045Z,1.70
2022-10-23T15:46:34.808Z,4.18
2022-10-23T15:49:01.447Z,3.05
2022-10-23T15:51:28.354Z,3.00
2022-10-23T15:53:54.990Z,2.60
2022-10-23T15:56:21.590Z,2.28
2022-10-23T15:58:48.186Z,2.90
2022-10-23T16:01:16.238Z,2.22
2022-10-23T16:03:43.506Z,2.40
2022-10-23T16:06:11.998Z,2.08
2022-10-23T16:08:38.911Z,1.60
2022-10-23T16:11:14.123Z,2.00
2022-10-23T16:13:40.769Z,1.80
2022-10-23T16:16:08.130Z,2.00
2022-10-23T16:18:36.090Z,1.60
2022-10-23T16:21:02.651Z,1.90
2022-10-23T16:23:29.436Z,2.47
2022-10-23T16:25:56.117Z,2.00
2022-10-23T16:28:22.697Z,2.00
2022-10-23T16:30:49.253Z,2.42
2022-10-23T16:33:15.858Z,2.30
2022-10-23T16:35:43.846Z,2.42
2022-10-23T16:38:10.511Z,2.20
2022-10-23T16:40:37.171Z,2.30
2022-10-23T16:43:03.716Z,3.60
2022-10-23T16:45:33.273Z,3.60
2022-10-23T16:48:02.254Z,3.03
2022-10-23T16:50:28.898Z,2.80
2022-10-23T16:52:56.910Z,2.50
2022-10-23T16:55:23.492Z,3.00
2022-10-23T16:57:50.058Z,2.50
2022-10-23T17:00:17.153Z,2.95
2022-10-23T17:02:44.144Z,2.50
2022-10-23T17:05:11.037Z,3.00
2022-10-23T17:07:37.608Z,3.45
2022-10-23T17:10:06.858Z,2.90
2022-10-23T17:12:33.432Z,2.78
2022-10-23T17:15:00.114Z,2.92
2022-10-23T17:17:26.758Z,2.70
2022-10-23T17:19:53.305Z,2.63
2022-10-23T17:22:19.849Z,2.90
2022-10-23T17:24:50.125Z,2.45
2022-10-23T17:27:21.781Z,2.78
2022-10-23T17:29:48.383Z,2.50
2022-10-23T17:32:15.161Z,2.60
2022-10-23T17:34:41.793Z,2.92
2022-10-23T17:37:08.577Z,2.33
2022-10-23T17:39:35.176Z,3.33
2022-10-23T17:42:01.806Z,3.17
2022-10-23T17:44:29.813Z,3.42
2022-10-23T17:46:56.532Z,3.45
2022-10-23T17:49:23.871Z,3.33
2022-10-23T17:51:51.837Z,3.20
2022-10-23T17:54:18.604Z,3.40
2022-10-23T17:56:46.875Z,2.97
2022-10-23T17:59:15.169Z,2.97
2022-10-23T18:01:43.267Z,3.00
2022-10-23T18:04:10.204Z,2.55
2022-10-23T18:06:41.807Z,3.23
2022-10-23T18:09:08.388Z,3.70
2022-10-23T18:11:37.834Z,3.47
2022-10-23T18:14:05.893Z,4.00
2022-10-23T18:16:32.763Z,3.15
2022-10-23T18:19:01.541Z,4.33
2022-10-23T18:21:28.492Z,4.10
2022-10-23T18:23:55.640Z,6.25
2022-10-23T18:26:24.332Z,10.50
2022-10-23T18:28:52.933Z,5.60
2022-10-23T18:31:20.161Z,4.57
2022-10-23T18:33:47.256Z,3.55
2022-10-23T18:36:18.489Z,3.80
2022-10-23T18:38:45.204Z,3.15
2022-10-23T18:41:12.189Z,3.08
2022-10-23T18:43:43.801Z,3.00
2022-10-23T18:46:11.099Z,3.00
2022-10-23T18:48:37.703Z,2.85
2022-10-23T18:51:04.378Z,3.10
2022-10-23T18:53:32.361Z,3.45
2022-10-23T18:55:58.921Z,3.30
2022-10-23T18:58:25.699Z,3.45
2022-10-23T19:00:52.246Z,3.45
2022-10-23T19:03:18.767Z,3.22
2022-10-23T19:05:46.635Z,3.47
2022-10-23T19:08:14.495Z,7.30
2022-10-23T19:10:43.737Z,7.53
2022-10-23T19:13:10.447Z,6.32
2022-10-23T19:15:37.493Z,6.35
2022-10-23T19:18:06.200Z,5.38
2022-10-23T19:20:33.552Z,4.00
2022-10-23T19:23:01.861Z,4.57
2022-10-23T19:25:31.303Z,3.85
2022-10-23T19:28:01.876Z,4.50
2022-10-23T19:30:29.125Z,3.42
2022-10-23T19:32:55.787Z,2.97
2022-10-23T19:35:24.466Z,3.45
2022-10-23T19:37:51.081Z,2.83
2022-10-23T19:40:17.701Z,3.85
2022-10-23T19:42:44.467Z,3.38
2022-10-23T19:45:14.095Z,3.53
2022-10-23T19:47:41.233Z,3.53
2022-10-23T19:50:10.329Z,5.10
2022-10-23T19:52:37.249Z,4.13
2022-10-23T19:55:05.497Z,4.22
2022-10-23T19:57:32.615Z,4.33
2022-10-23T19:59:59.461Z,4.78
2022-10-23T20:02:27.956Z,3.70
2022-10-23T20:04:54.783Z,4.07
2022-10-23T20:07:21.766Z,3.60
2022-10-23T20:09:48.358Z,4.10
2022-10-23T20:12:14.914Z,4.22
2022-10-23T20:14:41.499Z,4.28
2022-10-23T20:17:08.138Z,4.53
2022-10-23T20:19:36.135Z,3.97
2022-10-23T20:22:02.729Z,3.90
2022-10-23T20:24:29.386Z,4.18
2022-10-23T20:26:56.417Z,4.18
2022-10-23T20:29:24.060Z,4.57
2022-10-23T20:31:51.111Z,4.18
2022-10-23T20:34:17.983Z,4.10
2022-10-23T20:36:50.542Z,3.90
2022-10-23T20:39:19.363Z,3.70
2022-10-23T20:41:46.323Z,3.70
2022-10-23T20:46:42.381Z,3.73
2022-10-23T20:49:09.751Z,3.80
2022-10-23T20:51:36.383Z,3.80
2022-10-23T20:54:04.675Z,3.58
2022-10-23T20:56:33.784Z,4.10
2022-10-23T20:59:01.753Z,3.80
2022-10-23T21:01:29.853Z,11.13
2022-10-23T21:03:58.137Z,5.90
2022-10-23T21:06:26.771Z,5.35
2022-10-23T21:08:54.969Z,4.15
2022-10-23T21:11:23.465Z,3.57
2022-10-23T21:13:50.284Z,3.72
2022-10-23T21:16:18.788Z,3.55
2022-10-23T21:18:46.941Z,3.22
2022-10-23T21:21:14.643Z,4.07
2022-10-23T21:23:41.209Z,4.03
2022-10-23T21:26:08.262Z,3.50
2022-10-23T21:28:36.236Z,3.50
2022-10-23T21:31:03.412Z,3.50
2022-10-23T21:33:30.390Z,3.53
2022-10-23T21:35:58.498Z,3.77
2022-10-23T21:38:31.513Z,3.45
2022-10-23T21:41:05.375Z,3.40
2022-10-23T21:43:31.902Z,3.28
2022-10-23T21:46:03.586Z,3.13
2022-10-23T21:48:30.227Z,3.43
2022-10-23T21:50:57.449Z,3.85
2022-10-23T21:53:24.125Z,3.75
2022-10-23T21:55:50.827Z,4.15
2022-10-23T21:58:17.483Z,3.03
2022-10-23T22:00:44.189Z,2.90
2022-10-23T22:03:12.093Z,3.60
2022-10-23T22:05:38.679Z,3.38
2022-10-23T22:08:05.574Z,4.10
2022-10-23T22:10:33.777Z,3.92
2022-10-23T22:13:00.309Z,4.03
2022-10-23T22:15:26.951Z,3.85
2022-10-23T22:17:53.552Z,3.70
2022-10-23T22:20:21.596Z,4.22
2022-10-23T22:22:48.190Z,4.00
2022-10-23T22:25:14.798Z,5.07
2022-10-23T22:27:41.463Z,5.05
2022-10-23T22:30:08.617Z,4.15
2022-10-23T22:32:35.575Z,5.00
2022-10-23T22:35:02.143Z,4.63
2022-10-23T22:37:30.014Z,4.67
2022-10-23T22:39:56.638Z,4.35
2022-10-23T22:42:23.210Z,4.38
2022-10-23T22:44:49.821Z,4.28
2022-10-23T22:47:16.364Z,4.13
2022-10-23T22:49:42.963Z,4.47
2022-10-23T22:52:09.544Z,4.75
2022-10-23T22:54:37.450Z,4.22
2022-10-23T22:57:04.264Z,4.43
2022-10-23T22:59:30.773Z,4.38
2022-10-23T23:01:57.410Z,4.23
2022-10-23T23:04:39.579Z,4.75
2022-10-23T23:07:07.215Z,4.35
2022-10-23T23:09:37.593Z,4.03
2022-10-23T23:12:04.407Z,4.55
2022-10-23T23:14:30.973Z,4.40
2022-10-23T23:16:57.522Z,4.50
2022-10-23T23:19:24.065Z,4.20
2022-10-23T23:21:50.635Z,3.60
2022-10-23T23:24:17.186Z,4.20
2022-10-23T23:26:45.124Z,4.10
2022-10-23T23:29:12.549Z,4.70
2022-10-23T23:31:39.487Z,4.25
2022-10-23T23:34:06.434Z,4.75
2022-10-23T23:36:33.269Z,4.25
2022-10-23T23:38:59.941Z,4.17
2022-10-23T23:41:28.232Z,4.45
2022-10-23T23:43:57.803Z,5.15
2022-10-23T23:46:26.063Z,4.65
2022-10-23T23:48:52.727Z,4.05
2022-10-23T23:51:21.372Z,3.60
2022-10-23T23:53:48.408Z,4.03
2022-10-23T23:56:15.259Z,4.00
2022-10-23T23:58:41.812Z,4.00
